createdAt,value
2023-06-03T00:06:47.842Z,14.47
2023-06-03T00:16:48.043Z,14.39
2023-06-03T00:26:48.532Z,14.26
2023-06-03T00:36:48.899Z,14.13
2023-06-03T00:46:48.914Z,13.99
2023-06-03T00:56:48.944Z,13.85
2023-06-03T01:06:49.451Z,13.71
2023-06-03T01:16:50.129Z,13.53
2023-06-03T01:26:50.059Z,13.38
2023-06-03T01:36:50.380Z,13.24
2023-06-03T01:46:51.121Z,13.13
2023-06-03T01:56:51.243Z,13.03
2023-06-03T02:06:52.094Z,12.96
2023-06-03T02:16:53.041Z,12.96
2023-06-03T02:26:53.152Z,13.08
2023-06-03T02:36:53.427Z,13.24
2023-06-03T02:46:54.240Z,13.38
2023-06-03T02:56:54.157Z,13.42
2023-06-03T03:06:54.780Z,13.41
2023-06-03T03:16:55.493Z,13.40
2023-06-03T03:26:55.895Z,13.42
2023-06-03T03:36:56.308Z,13.44
2023-06-03T03:46:56.318Z,13.46
2023-06-03T03:56:57.087Z,13.50
2023-06-03T04:06:57.356Z,13.58
2023-06-03T04:17:04.962Z,13.75
2023-06-03T04:27:08.244Z,14.06
2023-06-03T04:37:08.978Z,14.48
2023-06-03T04:47:11.598Z,14.89
2023-06-03T04:57:11.924Z,15.21
2023-06-03T05:07:12.888Z,15.47
2023-06-03T05:17:13.365Z,15.72
2023-06-03T05:27:13.542Z,16.01
2023-06-03T05:37:13.476Z,16.46
2023-06-03T05:47:14.671Z,17.10
2023-06-03T05:57:15.177Z,17.77
2023-06-03T06:07:15.614Z,18.50
2023-06-03T06:17:17.371Z,19.39
2023-06-03T06:27:17.625Z,20.50
2023-06-03T06:37:17.460Z,22.43
2023-06-03T06:47:17.452Z,25.79
2023-06-03T06:57:17.682Z,29.95
2023-06-03T07:07:18.415Z,33.58
2023-06-03T07:17:18.632Z,36.44
2023-06-03T07:27:18.622Z,39.03
2023-06-03T07:37:18.591Z,41.43
2023-06-03T07:47:18.599Z,43.56
2023-06-03T07:57:18.493Z,45.44
2023-06-03T08:07:18.613Z,47.11
2023-06-03T08:17:18.670Z,48.43
2023-06-03T08:27:18.570Z,49.16
2023-06-03T08:37:18.562Z,49.58
2023-06-03T08:47:18.695Z,49.98
2023-06-03T08:57:19.886Z,50.42
2023-06-03T09:07:19.605Z,50.61
2023-06-03T09:17:19.648Z,50.72
2023-06-03T09:27:19.689Z,50.33
2023-06-03T09:37:19.724Z,49.69
2023-06-03T09:47:19.724Z,49.56
2023-06-03T09:57:19.703Z,49.30
2023-06-03T10:07:20.744Z,48.69
2023-06-03T10:17:21.589Z,47.66
2023-06-03T10:27:21.714Z,45.88
2023-06-03T10:37:23.462Z,43.37
2023-06-03T10:47:23.750Z,39.94
2023-06-03T10:57:23.791Z,36.43
2023-06-03T11:07:24.381Z,33.60
2023-06-03T11:17:24.835Z,31.36
2023-06-03T11:27:25.009Z,29.40
2023-06-03T11:37:25.177Z,27.73
2023-06-03T11:47:25.067Z,26.45
2023-06-03T11:57:24.951Z,25.50
2023-06-03T12:07:24.878Z,24.77
2023-06-03T12:17:26.820Z,24.25
2023-06-03T12:27:45.648Z,23.95
2023-06-03T12:37:46.025Z,23.83
2023-06-03T12:47:46.111Z,23.66
2023-06-03T12:57:45.943Z,23.49
2023-06-03T13:07:46.628Z,23.33
2023-06-03T13:17:47.061Z,23.23
2023-06-03T13:27:46.991Z,23.18
2023-06-03T13:37:47.007Z,23.14
2023-06-03T13:47:47.104Z,23.10
2023-06-03T13:58:06.488Z,23.08
2023-06-03T14:08:06.031Z,23.05
2023-06-03T14:18:07.086Z,23.02
2023-06-03T14:28:07.108Z,23.01
2023-06-03T14:38:07.100Z,22.99
2023-06-03T14:48:07.170Z,22.96
2023-06-03T14:58:07.101Z,22.90
2023-06-03T15:08:07.896Z,22.86
2023-06-03T15:18:08.343Z,22.85
2023-06-03T15:28:08.287Z,22.84
2023-06-03T15:38:08.236Z,22.82
2023-06-03T15:48:08.197Z,22.78
2023-06-03T15:58:08.225Z,22.75
2023-06-03T16:08:08.248Z,22.72
2023-06-03T16:18:08.341Z,22.67
2023-06-03T16:28:08.296Z,22.62
2023-06-03T16:38:08.285Z,22.58
2023-06-03T16:48:08.312Z,22.52
2023-06-03T16:58:08.319Z,22.45
2023-06-03T17:08:08.440Z,22.35
2023-06-03T17:18:08.290Z,22.23
2023-06-03T17:28:08.276Z,22.12
2023-06-03T17:38:08.316Z,22.00
2023-06-03T17:48:08.772Z,21.85
2023-06-03T17:58:09.637Z,21.69
2023-06-03T18:08:09.350Z,21.52
2023-06-03T18:18:10.623Z,21.30
2023-06-03T18:28:10.482Z,21.09
2023-06-03T18:38:10.424Z,20.85
2023-06-03T18:48:10.519Z,20.63
2023-06-03T18:58:14.040Z,20.39
2023-06-03T19:08:16.362Z,20.15
2023-06-03T19:18:16.503Z,19.88
2023-06-03T19:28:16.530Z,19.63
2023-06-03T19:38:16.557Z,19.36
2023-06-03T19:48:16.647Z,19.09
2023-06-03T19:58:16.772Z,18.81
2023-06-03T20:08:17.681Z,18.52
2023-06-03T20:18:18.186Z,18.24
2023-06-03T20:28:18.713Z,17.96
2023-06-03T20:38:18.622Z,17.75
2023-06-03T20:48:18.687Z,17.61
2023-06-03T20:58:18.635Z,17.49
2023-06-03T21:08:18.749Z,17.35
2023-06-03T21:18:18.655Z,17.21
2023-06-03T21:28:18.690Z,17.05
2023-06-03T21:38:18.756Z,16.88
2023-06-03T21:48:18.693Z,16.72
2023-06-03T21:58:18.699Z,16.63
2023-06-03T22:08:18.746Z,16.57
2023-06-03T22:18:18.770Z,16.52
2023-06-03T22:28:18.856Z,16.48
2023-06-03T22:38:18.766Z,16.43
2023-06-03T22:48:18.763Z,16.34
2023-06-03T22:58:18.792Z,16.22
2023-06-03T23:08:18.816Z,16.08
2023-06-03T23:18:18.906Z,15.98
2023-06-03T23:28:18.867Z,15.91
2023-06-03T23:38:18.821Z,15.85
2023-06-03T23:48:18.849Z,15.75
2023-06-03T23:58:18.858Z,15.61
